Tuesday, November 25, 2014
22:14 UTC
  |  Log In   |  Register Free
Airport Search:

New River Valley Airport
(KPSK)

New River Valley Airport Diagram
No Airport Diagram Available

FAA data valid effective November 13, 2014 - January 08, 2015 (unless otherwise noted).

 
 
 
 
 
 
 
 
 
 
 
 
 
 

Current Aviation Weather for New River Valley Airport (KPSK)

The most recent METAR observation for KPSK was updated at: 2118
METAR Summary (Translated METAR)
KPSK
252055Z AUTO 16003KT 10SM CLR 12/M01 A3003 RMK AO2 T01161013
KBCB
252155Z AUTO 00000KT 10SM CLR 09/M02 A3006 RMK AO2
(13.6 nm NE from KPSK)
KHLX
252055Z AUTO 30006KT 10SM CLR 09/M06 A3003 RMK AO2 T00921058
(23.4 nm SW from KPSK)
TAF Summary (Translated TAF)
KBCB
(13.6 nm NE from KPSK)
251729Z 2518/2618 30007KT P6SM SCT200 FM252200 VRB03KT P6SM SCT040 OVC150 FM260500 35003KT P6SM -RA SCT035 OVC050 FM260800 03004KT 3SM -SN BR SCT007 OVC015 FM261000 36005KT 2SM -SN BR OVC009 TEMPO 2611/2615 1/2SM SN FG OVC005
  Airport Weather Conditions for KPSK

 Current Weather at PSK
54° F
Fair
South winds at 4.6 mph
PSK NOAA Radar

Pressure: 30.05 in
Humidity: 36%
Wind: South at 4.6 MPH (4 KT)
Dew Point: 27.5°F
Visibility: 10.00 mi


Airport Weather Forecast for KPSK

Translated METAR and TAF for KPSK
Translated METAR for KPSK (2209 UTC 25 November 2014)
found at http://aviationweather.gov/adds/metars/
 
METAR text: KPSK 252155Z AUTO 00000KT 10SM CLR 10/M01 A3006 RMK AO2 T00971011
Conditions at: KPSK (DUBLIN/NEW RIV , VA, US) observed 2155 UTC 25 November 2014
Temperature: 9.7°C (49°F)
Dewpoint: -1.1°C (30°F) [RH = 47%]
Pressure (altimeter): 30.06 inches Hg (1018.0 mb)
Winds: calm
Visibility: 10 or more miles (16+ km)
Ceiling: at least 12,000 feet AGL
Clouds: sky clear below 12,000 feet AGL
Weather: automated observation with no human augmentation;
there may or may not be significant weather present at this time
Translated TAF for KPSK

There is no translated TAF available for this airport

Find All Airport Services Find A Hotel Find A Rental Car Find A Golf Course Find A Restaurant $100 Hamburger



FBO's on the Field
FBO Company Facility Photos Services Transportation Aviation Fuel Prices: Prices include tax
Catering Weather Repair Courtesy Rental Type 100LL JetA JetA+ MOGAS 8087
 
New River Valley Airport

This FBO has not yet been rated
FS:Avfuel
Last Updated: Nov-25
Login to update fuel prices
SS:
Contact New River Valley AirportMore FBO Information
 
Add another FBO Facility Photos Catering Weather Repair Courtesy Rental Type 100LL JetA JetA+ MOGAS 8087
Services Transportation Aviation Fuel Prices: Prices include tax


model-print
model-print
model-print
model-print